sensor_id;sensor_type;location;lat;lon;timestamp;temperature;humidity
58096;DHT22;43908;53.038;6.666;2022-08-02T00:02:10;12.10;99.90
58096;DHT22;43908;53.038;6.666;2022-08-02T00:04:35;12.10;99.90
58096;DHT22;43908;53.038;6.666;2022-08-02T00:07:01;12.00;99.90
58096;DHT22;43908;53.038;6.666;2022-08-02T00:09:27;12.10;99.90
58096;DHT22;43908;53.038;6.666;2022-08-02T00:11:53;12.10;99.90
58096;DHT22;43908;53.038;6.666;2022-08-02T00:14:19;12.10;99.90
58096;DHT22;43908;53.038;6.666;2022-08-02T00:16:44;12.10;99.90
58096;DHT22;43908;53.038;6.666;2022-08-02T00:19:10;12.10;99.90
58096;DHT22;43908;53.038;6.666;2022-08-02T00:21:36;12.10;99.90
58096;DHT22;43908;53.038;6.666;2022-08-02T00:24:01;12.10;99.90
58096;DHT22;43908;53.038;6.666;2022-08-02T00:26:27;12.10;99.90
58096;DHT22;43908;53.038;6.666;2022-08-02T00:28:52;12.10;99.90
58096;DHT22;43908;53.038;6.666;2022-08-02T00:31:18;12.10;99.90
58096;DHT22;43908;53.038;6.666;2022-08-02T00:33:44;12.10;99.90
58096;DHT22;43908;53.038;6.666;2022-08-02T00:36:09;12.10;99.90
58096;DHT22;43908;53.038;6.666;2022-08-02T00:38:35;12.10;99.90
58096;DHT22;43908;53.038;6.666;2022-08-02T00:41:01;12.00;99.90
58096;DHT22;43908;53.038;6.666;2022-08-02T00:43:26;12.00;99.90
58096;DHT22;43908;53.038;6.666;2022-08-02T00:45:52;12.00;99.90
58096;DHT22;43908;53.038;6.666;2022-08-02T00:48:17;11.90;99.90
58096;DHT22;43908;53.038;6.666;2022-08-02T00:50:43;11.90;99.90
58096;DHT22;43908;53.038;6.666;2022-08-02T00:53:09;11.90;99.90
58096;DHT22;43908;53.038;6.666;2022-08-02T00:55:36;11.90;99.90
58096;DHT22;43908;53.038;6.666;2022-08-02T00:58:02;11.90;99.90
58096;DHT22;43908;53.038;6.666;2022-08-02T01:00:28;11.90;99.90
58096;DHT22;43908;53.038;6.666;2022-08-02T01:02:53;11.80;99.90
58096;DHT22;43908;53.038;6.666;2022-08-02T01:05:19;11.80;99.90
58096;DHT22;43908;53.038;6.666;2022-08-02T01:07:45;11.80;99.90
58096;DHT22;43908;53.038;6.666;2022-08-02T01:10:10;11.70;99.90
58096;DHT22;43908;53.038;6.666;2022-08-02T01:12:36;11.70;99.90
58096;DHT22;43908;53.038;6.666;2022-08-02T01:15:08;11.70;99.90
58096;DHT22;43908;53.038;6.666;2022-08-02T01:17:48;11.70;99.90
58096;DHT22;43908;53.038;6.666;2022-08-02T01:20:31;11.60;99.90
58096;DHT22;43908;53.038;6.666;2022-08-02T01:29:02;11.50;99.90
58096;DHT22;43908;53.038;6.666;2022-08-02T01:31:34;11.50;99.90
58096;DHT22;43908;53.038;6.666;2022-08-02T01:36:36;11.40;99.90
58096;DHT22;43908;53.038;6.666;2022-08-02T01:39:03;11.40;99.90
58096;DHT22;43908;53.038;6.666;2022-08-02T01:41:31;11.40;99.90
58096;DHT22;43908;53.038;6.666;2022-08-02T01:43:59;11.40;99.90
58096;DHT22;43908;53.038;6.666;2022-08-02T01:46:28;11.30;99.90
58096;DHT22;43908;53.038;6.666;2022-08-02T01:48:56;11.30;99.90
58096;DHT22;43908;53.038;6.666;2022-08-02T01:51:24;11.30;99.90
58096;DHT22;43908;53.038;6.666;2022-08-02T01:54:16;11.20;99.90
58096;DHT22;43908;53.038;6.666;2022-08-02T01:56:43;11.30;99.90
58096;DHT22;43908;53.038;6.666;2022-08-02T01:59:12;11.20;99.90
58096;DHT22;43908;53.038;6.666;2022-08-02T02:01:40;11.20;99.90
58096;DHT22;43908;53.038;6.666;2022-08-02T02:04:07;11.20;99.90
58096;DHT22;43908;53.038;6.666;2022-08-02T02:06:35;11.20;99.90
58096;DHT22;43908;53.038;6.666;2022-08-02T02:09:02;11.10;99.90
58096;DHT22;43908;53.038;6.666;2022-08-02T02:11:29;11.20;99.90
58096;DHT22;43908;53.038;6.666;2022-08-02T02:14:01;11.10;99.90
58096;DHT22;43908;53.038;6.666;2022-08-02T02:16:27;11.20;99.90
58096;DHT22;43908;53.038;6.666;2022-08-02T02:18:53;11.20;99.90
58096;DHT22;43908;53.038;6.666;2022-08-02T02:21:19;11.20;99.90
58096;DHT22;43908;53.038;6.666;2022-08-02T02:23:45;11.20;99.90
58096;DHT22;43908;53.038;6.666;2022-08-02T02:26:12;11.20;99.90
58096;DHT22;43908;53.038;6.666;2022-08-02T02:28:40;11.10;99.90
58096;DHT22;43908;53.038;6.666;2022-08-02T02:31:10;11.20;99.90
58096;DHT22;43908;53.038;6.666;2022-08-02T02:33:46;11.10;99.90
58096;DHT22;43908;53.038;6.666;2022-08-02T02:36:18;11.20;99.90
58096;DHT22;43908;53.038;6.666;2022-08-02T02:38:45;11.10;99.90
58096;DHT22;43908;53.038;6.666;2022-08-02T02:41:12;11.20;99.90
58096;DHT22;43908;53.038;6.666;2022-08-02T02:43:40;11.10;99.90
58096;DHT22;43908;53.038;6.666;2022-08-02T02:46:09;11.10;99.90
58096;DHT22;43908;53.038;6.666;2022-08-02T02:48:35;11.10;99.90
58096;DHT22;43908;53.038;6.666;2022-08-02T02:51:03;11.10;99.90
58096;DHT22;43908;53.038;6.666;2022-08-02T02:53:30;11.10;99.90
58096;DHT22;43908;53.038;6.666;2022-08-02T02:55:56;11.10;99.90
58096;DHT22;43908;53.038;6.666;2022-08-02T02:58:23;11.20;99.90
58096;DHT22;43908;53.038;6.666;2022-08-02T03:00:49;11.20;99.90
58096;DHT22;43908;53.038;6.666;2022-08-02T03:03:33;11.10;99.90
58096;DHT22;43908;53.038;6.666;2022-08-02T03:06:00;11.20;99.90
58096;DHT22;43908;53.038;6.666;2022-08-02T03:08:25;11.20;99.90
58096;DHT22;43908;53.038;6.666;2022-08-02T03:10:51;11.20;99.90
58096;DHT22;43908;53.038;6.666;2022-08-02T03:13:17;11.20;99.90
58096;DHT22;43908;53.038;6.666;2022-08-02T03:15:45;11.20;99.90
58096;DHT22;43908;53.038;6.666;2022-08-02T03:18:29;11.10;99.90
58096;DHT22;43908;53.038;6.666;2022-08-02T03:21:00;11.20;99.90
58096;DHT22;43908;53.038;6.666;2022-08-02T03:23:26;11.10;99.90
58096;DHT22;43908;53.038;6.666;2022-08-02T03:25:51;11.10;99.90
58096;DHT22;43908;53.038;6.666;2022-08-02T03:28:17;11.10;99.90
58096;DHT22;43908;53.038;6.666;2022-08-02T03:30:42;11.20;99.90
58096;DHT22;43908;53.038;6.666;2022-08-02T03:33:08;11.10;99.90
58096;DHT22;43908;53.038;6.666;2022-08-02T03:35:35;11.20;99.90
58096;DHT22;43908;53.038;6.666;2022-08-02T03:38:01;11.20;99.90
58096;DHT22;43908;53.038;6.666;2022-08-02T03:40:27;11.20;99.90
58096;DHT22;43908;53.038;6.666;2022-08-02T03:42:54;11.20;99.90
58096;DHT22;43908;53.038;6.666;2022-08-02T03:45:21;11.20;99.90
58096;DHT22;43908;53.038;6.666;2022-08-02T03:47:47;11.20;99.90
58096;DHT22;43908;53.038;6.666;2022-08-02T03:50:12;11.20;99.90
58096;DHT22;43908;53.038;6.666;2022-08-02T03:52:41;11.30;99.90
58096;DHT22;43908;53.038;6.666;2022-08-02T03:55:10;11.30;99.90
58096;DHT22;43908;53.038;6.666;2022-08-02T03:57:40;11.30;99.90
58096;DHT22;43908;53.038;6.666;2022-08-02T04:00:08;11.30;99.90
58096;DHT22;43908;53.038;6.666;2022-08-02T04:02:35;11.30;99.90
58096;DHT22;43908;53.038;6.666;2022-08-02T04:05:00;11.40;99.90
58096;DHT22;43908;53.038;6.666;2022-08-02T04:07:26;11.40;99.90
58096;DHT22;43908;53.038;6.666;2022-08-02T04:09:51;11.40;99.90
58096;DHT22;43908;53.038;6.666;2022-08-02T04:12:17;11.50;99.90
58096;DHT22;43908;53.038;6.666;2022-08-02T04:14:43;11.50;99.90
58096;DHT22;43908;53.038;6.666;2022-08-02T04:17:10;11.50;99.90
58096;DHT22;43908;53.038;6.666;2022-08-02T04:22:06;11.60;99.90
58096;DHT22;43908;53.038;6.666;2022-08-02T04:24:43;11.60;99.90
58096;DHT22;43908;53.038;6.666;2022-08-02T04:27:09;11.70;99.90
58096;DHT22;43908;53.038;6.666;2022-08-02T04:29:36;11.70;99.90
58096;DHT22;43908;53.038;6.666;2022-08-02T04:32:04;11.80;99.90
58096;DHT22;43908;53.038;6.666;2022-08-02T04:34:30;11.80;99.90
58096;DHT22;43908;53.038;6.666;2022-08-02T04:36:56;11.90;99.90
58096;DHT22;43908;53.038;6.666;2022-08-02T04:39:23;12.00;99.90
58096;DHT22;43908;53.038;6.666;2022-08-02T04:41:48;12.00;99.90
58096;DHT22;43908;53.038;6.666;2022-08-02T04:44:14;12.10;99.90
58096;DHT22;43908;53.038;6.666;2022-08-02T04:46:40;12.10;99.90
58096;DHT22;43908;53.038;6.666;2022-08-02T04:49:07;12.20;99.90
58096;DHT22;43908;53.038;6.666;2022-08-02T04:51:38;12.30;99.90
58096;DHT22;43908;53.038;6.666;2022-08-02T04:54:04;12.30;99.90
58096;DHT22;43908;53.038;6.666;2022-08-02T04:56:30;12.40;99.90
58096;DHT22;43908;53.038;6.666;2022-08-02T04:58:56;12.50;99.90
58096;DHT22;43908;53.038;6.666;2022-08-02T05:01:21;12.50;99.90
58096;DHT22;43908;53.038;6.666;2022-08-02T05:03:47;12.60;99.90
58096;DHT22;43908;53.038;6.666;2022-08-02T05:06:12;12.70;99.90
58096;DHT22;43908;53.038;6.666;2022-08-02T05:08:38;12.70;99.90
58096;DHT22;43908;53.038;6.666;2022-08-02T05:11:03;12.80;99.90
58096;DHT22;43908;53.038;6.666;2022-08-02T05:13:29;12.90;99.90
58096;DHT22;43908;53.038;6.666;2022-08-02T05:15:55;12.90;99.90
58096;DHT22;43908;53.038;6.666;2022-08-02T05:18:23;13.00;99.90
58096;DHT22;43908;53.038;6.666;2022-08-02T05:20:48;13.10;99.90
58096;DHT22;43908;53.038;6.666;2022-08-02T05:23:14;13.10;99.90
58096;DHT22;43908;53.038;6.666;2022-08-02T05:25:39;13.20;99.90
58096;DHT22;43908;53.038;6.666;2022-08-02T05:28:05;13.30;99.90
58096;DHT22;43908;53.038;6.666;2022-08-02T05:30:30;13.40;99.90
58096;DHT22;43908;53.038;6.666;2022-08-02T05:32:56;13.50;99.90
58096;DHT22;43908;53.038;6.666;2022-08-02T05:35:22;13.60;99.90
58096;DHT22;43908;53.038;6.666;2022-08-02T05:37:50;13.70;99.90
58096;DHT22;43908;53.038;6.666;2022-08-02T05:40:16;13.80;99.90
58096;DHT22;43908;53.038;6.666;2022-08-02T05:42:43;13.90;99.90
58096;DHT22;43908;53.038;6.666;2022-08-02T05:45:09;14.00;99.90
58096;DHT22;43908;53.038;6.666;2022-08-02T05:47:35;14.10;99.90
58096;DHT22;43908;53.038;6.666;2022-08-02T05:50:01;14.30;99.90
58096;DHT22;43908;53.038;6.666;2022-08-02T05:55:10;14.50;99.90
58096;DHT22;43908;53.038;6.666;2022-08-02T06:00:48;15.20;99.90
58096;DHT22;43908;53.038;6.666;2022-08-02T06:05:52;18.80;99.90
58096;DHT22;43908;53.038;6.666;2022-08-02T06:08:20;20.50;99.90
58096;DHT22;43908;53.038;6.666;2022-08-02T06:10:46;21.20;99.90
58096;DHT22;43908;53.038;6.666;2022-08-02T06:13:13;22.20;99.90
58096;DHT22;43908;53.038;6.666;2022-08-02T06:15:41;22.90;99.90
58096;DHT22;43908;53.038;6.666;2022-08-02T06:18:08;24.10;94.20
58096;DHT22;43908;53.038;6.666;2022-08-02T06:20:35;24.20;97.40
58096;DHT22;43908;53.038;6.666;2022-08-02T06:23:05;24.80;96.60
58096;DHT22;43908;53.038;6.666;2022-08-02T06:25:33;25.20;94.50
58096;DHT22;43908;53.038;6.666;2022-08-02T06:28:00;25.60;93.00
58096;DHT22;43908;53.038;6.666;2022-08-02T06:30:28;26.30;93.40
58096;DHT22;43908;53.038;6.666;2022-08-02T06:32:54;26.70;92.50
58096;DHT22;43908;53.038;6.666;2022-08-02T06:37:51;27.30;90.10
58096;DHT22;43908;53.038;6.666;2022-08-02T06:43:17;27.50;89.30
58096;DHT22;43908;53.038;6.666;2022-08-02T06:45:46;27.90;86.60
58096;DHT22;43908;53.038;6.666;2022-08-02T06:48:11;28.20;88.00
58096;DHT22;43908;53.038;6.666;2022-08-02T06:50:37;28.00;86.60
58096;DHT22;43908;53.038;6.666;2022-08-02T06:53:07;27.80;86.20
58096;DHT22;43908;53.038;6.666;2022-08-02T06:55:33;27.80;84.70
58096;DHT22;43908;53.038;6.666;2022-08-02T06:57:59;27.90;83.80
58096;DHT22;43908;53.038;6.666;2022-08-02T07:00:25;27.90;82.90
58096;DHT22;43908;53.038;6.666;2022-08-02T07:02:51;27.90;81.00
58096;DHT22;43908;53.038;6.666;2022-08-02T07:05:17;28.20;82.70
58096;DHT22;43908;53.038;6.666;2022-08-02T07:07:44;28.50;81.30
58096;DHT22;43908;53.038;6.666;2022-08-02T07:10:09;28.70;82.40
58096;DHT22;43908;53.038;6.666;2022-08-02T07:12:35;29.00;81.60
58096;DHT22;43908;53.038;6.666;2022-08-02T07:15:04;29.10;81.00
58096;DHT22;43908;53.038;6.666;2022-08-02T07:17:30;29.50;79.60
58096;DHT22;43908;53.038;6.666;2022-08-02T07:19:57;29.90;79.70
58096;DHT22;43908;53.038;6.666;2022-08-02T07:22:23;30.20;78.10
58096;DHT22;43908;53.038;6.666;2022-08-02T07:24:49;29.80;76.00
58096;DHT22;43908;53.038;6.666;2022-08-02T07:27:15;29.90;74.80
58096;DHT22;43908;53.038;6.666;2022-08-02T07:29:41;29.90;75.40
58096;DHT22;43908;53.038;6.666;2022-08-02T07:32:06;29.30;75.20
58096;DHT22;43908;53.038;6.666;2022-08-02T07:34:32;28.70;75.10
58096;DHT22;43908;53.038;6.666;2022-08-02T07:36:58;28.20;74.20
58096;DHT22;43908;53.038;6.666;2022-08-02T07:39:23;28.10;76.10
58096;DHT22;43908;53.038;6.666;2022-08-02T07:41:49;28.40;76.90
58096;DHT22;43908;53.038;6.666;2022-08-02T07:44:19;29.00;75.20
58096;DHT22;43908;53.038;6.666;2022-08-02T07:46:46;29.40;74.30
58096;DHT22;43908;53.038;6.666;2022-08-02T07:49:12;29.70;74.20
58096;DHT22;43908;53.038;6.666;2022-08-02T07:51:45;29.80;72.40
58096;DHT22;43908;53.038;6.666;2022-08-02T07:54:11;30.00;72.50
58096;DHT22;43908;53.038;6.666;2022-08-02T07:56:37;30.10;72.00
58096;DHT22;43908;53.038;6.666;2022-08-02T07:59:03;30.00;70.70
58096;DHT22;43908;53.038;6.666;2022-08-02T08:01:29;30.00;71.00
58096;DHT22;43908;53.038;6.666;2022-08-02T08:03:54;30.10;70.90
58096;DHT22;43908;53.038;6.666;2022-08-02T08:06:20;29.90;68.00
58096;DHT22;43908;53.038;6.666;2022-08-02T08:08:46;29.50;70.00
58096;DHT22;43908;53.038;6.666;2022-08-02T08:11:12;28.60;69.20
58096;DHT22;43908;53.038;6.666;2022-08-02T08:13:37;27.80;69.70
58096;DHT22;43908;53.038;6.666;2022-08-02T08:16:03;27.00;68.30
58096;DHT22;43908;53.038;6.666;2022-08-02T08:18:30;26.50;69.30
58096;DHT22;43908;53.038;6.666;2022-08-02T08:20:56;26.20;70.60
58096;DHT22;43908;53.038;6.666;2022-08-02T08:23:22;25.90;71.70
58096;DHT22;43908;53.038;6.666;2022-08-02T08:25:48;25.60;72.40
58096;DHT22;43908;53.038;6.666;2022-08-02T08:28:14;25.30;71.80
58096;DHT22;43908;53.038;6.666;2022-08-02T08:30:40;25.20;73.10
58096;DHT22;43908;53.038;6.666;2022-08-02T08:33:07;25.00;74.70
58096;DHT22;43908;53.038;6.666;2022-08-02T08:35:33;24.90;74.90
58096;DHT22;43908;53.038;6.666;2022-08-02T08:37:58;25.00;75.10
58096;DHT22;43908;53.038;6.666;2022-08-02T08:40:24;24.80;76.50
58096;DHT22;43908;53.038;6.666;2022-08-02T08:42:50;24.80;76.70
58096;DHT22;43908;53.038;6.666;2022-08-02T08:45:16;24.70;74.20
58096;DHT22;43908;53.038;6.666;2022-08-02T08:47:42;24.60;75.60
58096;DHT22;43908;53.038;6.666;2022-08-02T08:50:20;24.60;77.30
58096;DHT22;43908;53.038;6.666;2022-08-02T08:52:48;24.50;79.20
58096;DHT22;43908;53.038;6.666;2022-08-02T08:55:23;24.50;78.40
58096;DHT22;43908;53.038;6.666;2022-08-02T08:57:51;24.60;78.00
58096;DHT22;43908;53.038;6.666;2022-08-02T09:00:18;24.70;78.10
58096;DHT22;43908;53.038;6.666;2022-08-02T09:02:43;24.60;78.00
58096;DHT22;43908;53.038;6.666;2022-08-02T09:05:10;24.70;78.10
58096;DHT22;43908;53.038;6.666;2022-08-02T09:07:36;24.60;77.20
58096;DHT22;43908;53.038;6.666;2022-08-02T09:10:41;24.60;78.10
58096;DHT22;43908;53.038;6.666;2022-08-02T09:13:22;24.70;78.10
58096;DHT22;43908;53.038;6.666;2022-08-02T09:18:34;24.70;79.50
58096;DHT22;43908;53.038;6.666;2022-08-02T09:21:03;24.80;80.40
58096;DHT22;43908;53.038;6.666;2022-08-02T09:23:36;24.90;79.10
58096;DHT22;43908;53.038;6.666;2022-08-02T09:26:05;25.00;80.30
58096;DHT22;43908;53.038;6.666;2022-08-02T09:28:33;25.10;78.10
58096;DHT22;43908;53.038;6.666;2022-08-02T09:31:20;25.10;77.80
58096;DHT22;43908;53.038;6.666;2022-08-02T09:33:58;25.20;77.80
58096;DHT22;43908;53.038;6.666;2022-08-02T09:36:25;25.10;76.40
58096;DHT22;43908;53.038;6.666;2022-08-02T09:38:58;25.30;79.60
58096;DHT22;43908;53.038;6.666;2022-08-02T09:41:27;25.30;78.80
58096;DHT22;43908;53.038;6.666;2022-08-02T09:43:55;25.30;79.00
58096;DHT22;43908;53.038;6.666;2022-08-02T09:48:53;25.60;79.50
58096;DHT22;43908;53.038;6.666;2022-08-02T09:51:21;25.70;79.90
58096;DHT22;43908;53.038;6.666;2022-08-02T09:53:49;25.80;79.10
58096;DHT22;43908;53.038;6.666;2022-08-02T09:56:16;25.80;78.50
58096;DHT22;43908;53.038;6.666;2022-08-02T09:58:42;25.80;78.40
58096;DHT22;43908;53.038;6.666;2022-08-02T10:01:08;25.90;78.70
58096;DHT22;43908;53.038;6.666;2022-08-02T10:03:34;26.00;79.90
58096;DHT22;43908;53.038;6.666;2022-08-02T10:06:00;26.10;77.80
58096;DHT22;43908;53.038;6.666;2022-08-02T10:08:27;26.10;79.20
58096;DHT22;43908;53.038;6.666;2022-08-02T10:10:54;26.30;80.10
58096;DHT22;43908;53.038;6.666;2022-08-02T10:13:30;26.40;79.70
58096;DHT22;43908;53.038;6.666;2022-08-02T10:15:56;26.40;78.90
58096;DHT22;43908;53.038;6.666;2022-08-02T10:18:21;26.40;79.70
58096;DHT22;43908;53.038;6.666;2022-08-02T10:20:49;26.60;78.90
58096;DHT22;43908;53.038;6.666;2022-08-02T10:23:15;26.60;78.20
58096;DHT22;43908;53.038;6.666;2022-08-02T10:25:41;26.80;79.60
58096;DHT22;43908;53.038;6.666;2022-08-02T10:28:09;26.90;80.30
58096;DHT22;43908;53.038;6.666;2022-08-02T10:30:39;26.80;78.20
58096;DHT22;43908;53.038;6.666;2022-08-02T10:33:08;26.80;78.30
58096;DHT22;43908;53.038;6.666;2022-08-02T10:35:37;26.70;80.50
58096;DHT22;43908;53.038;6.666;2022-08-02T10:38:06;26.70;79.40
58096;DHT22;43908;53.038;6.666;2022-08-02T10:40:45;26.70;80.10
58096;DHT22;43908;53.038;6.666;2022-08-02T10:43:12;26.70;80.80
58096;DHT22;43908;53.038;6.666;2022-08-02T10:46:31;26.70;80.70
58096;DHT22;43908;53.038;6.666;2022-08-02T10:49:10;26.70;81.70
58096;DHT22;43908;53.038;6.666;2022-08-02T10:54:27;26.90;81.10
58096;DHT22;43908;53.038;6.666;2022-08-02T10:56:57;27.00;80.90
58096;DHT22;43908;53.038;6.666;2022-08-02T10:59:30;27.10;81.10
58096;DHT22;43908;53.038;6.666;2022-08-02T11:02:00;27.10;81.90
58096;DHT22;43908;53.038;6.666;2022-08-02T11:07:41;27.30;82.70
58096;DHT22;43908;53.038;6.666;2022-08-02T11:10:37;27.40;81.90
58096;DHT22;43908;53.038;6.666;2022-08-02T11:13:16;27.50;79.50
58096;DHT22;43908;53.038;6.666;2022-08-02T11:18:12;27.50;79.50
58096;DHT22;43908;53.038;6.666;2022-08-02T11:20:38;27.60;81.10
58096;DHT22;43908;53.038;6.666;2022-08-02T11:26:01;27.80;79.20
58096;DHT22;43908;53.038;6.666;2022-08-02T11:28:30;27.90;79.30
58096;DHT22;43908;53.038;6.666;2022-08-02T11:30:59;27.90;79.20
58096;DHT22;43908;53.038;6.666;2022-08-02T11:33:30;27.90;81.10
58096;DHT22;43908;53.038;6.666;2022-08-02T11:36:00;27.90;82.10
58096;DHT22;43908;53.038;6.666;2022-08-02T11:38:26;27.90;78.40
58096;DHT22;43908;53.038;6.666;2022-08-02T11:40:52;27.90;77.60
58096;DHT22;43908;53.038;6.666;2022-08-02T11:43:22;28.00;79.40
58096;DHT22;43908;53.038;6.666;2022-08-02T11:45:49;28.20;78.70
58096;DHT22;43908;53.038;6.666;2022-08-02T11:48:30;28.00;79.20
58096;DHT22;43908;53.038;6.666;2022-08-02T11:51:16;27.90;78.40
58096;DHT22;43908;53.038;6.666;2022-08-02T11:53:43;27.80;80.50
58096;DHT22;43908;53.038;6.666;2022-08-02T11:56:10;27.80;81.70
58096;DHT22;43908;53.038;6.666;2022-08-02T11:58:37;27.90;79.60
58096;DHT22;43908;53.038;6.666;2022-08-02T12:01:04;27.90;79.80
58096;DHT22;43908;53.038;6.666;2022-08-02T12:03:37;27.90;79.90
58096;DHT22;43908;53.038;6.666;2022-08-02T12:06:04;28.00;80.40
58096;DHT22;43908;53.038;6.666;2022-08-02T12:08:35;28.10;79.60
58096;DHT22;43908;53.038;6.666;2022-08-02T12:11:02;28.30;79.20
58096;DHT22;43908;53.038;6.666;2022-08-02T12:13:40;28.40;78.80
58096;DHT22;43908;53.038;6.666;2022-08-02T12:16:12;28.50;78.10
58096;DHT22;43908;53.038;6.666;2022-08-02T12:18:57;28.40;78.20
58096;DHT22;43908;53.038;6.666;2022-08-02T12:21:42;28.40;78.10
58096;DHT22;43908;53.038;6.666;2022-08-02T12:24:09;28.50;77.30
58096;DHT22;43908;53.038;6.666;2022-08-02T12:26:45;28.50;78.60
58096;DHT22;43908;53.038;6.666;2022-08-02T12:29:11;28.70;76.00
58096;DHT22;43908;53.038;6.666;2022-08-02T12:31:44;28.70;77.20
58096;DHT22;43908;53.038;6.666;2022-08-02T12:34:16;28.60;77.80
58096;DHT22;43908;53.038;6.666;2022-08-02T12:36:43;28.60;76.40
58096;DHT22;43908;53.038;6.666;2022-08-02T12:39:31;28.50;76.00
58096;DHT22;43908;53.038;6.666;2022-08-02T12:41:57;28.20;77.70
58096;DHT22;43908;53.038;6.666;2022-08-02T12:44:22;28.10;77.60
58096;DHT22;43908;53.038;6.666;2022-08-02T12:46:58;28.10;80.80
58096;DHT22;43908;53.038;6.666;2022-08-02T12:49:24;28.00;79.10
58096;DHT22;43908;53.038;6.666;2022-08-02T12:51:49;28.10;77.80
58096;DHT22;43908;53.038;6.666;2022-08-02T12:54:21;28.00;79.70
58096;DHT22;43908;53.038;6.666;2022-08-02T12:56:47;28.00;78.60
58096;DHT22;43908;53.038;6.666;2022-08-02T12:59:14;28.00;78.90
58096;DHT22;43908;53.038;6.666;2022-08-02T13:01:40;27.90;79.20
58096;DHT22;43908;53.038;6.666;2022-08-02T13:04:06;27.90;78.50
58096;DHT22;43908;53.038;6.666;2022-08-02T13:06:31;27.90;79.30
58096;DHT22;43908;53.038;6.666;2022-08-02T13:08:58;27.80;79.90
58096;DHT22;43908;53.038;6.666;2022-08-02T13:11:24;27.60;79.80
58096;DHT22;43908;53.038;6.666;2022-08-02T13:13:50;27.70;81.20
58096;DHT22;43908;53.038;6.666;2022-08-02T13:16:16;27.70;80.30
58096;DHT22;43908;53.038;6.666;2022-08-02T13:18:41;27.70;82.00
58096;DHT22;43908;53.038;6.666;2022-08-02T13:21:07;27.80;81.30
58096;DHT22;43908;53.038;6.666;2022-08-02T13:23:35;27.90;82.40
58096;DHT22;43908;53.038;6.666;2022-08-02T13:26:02;28.10;80.60
58096;DHT22;43908;53.038;6.666;2022-08-02T13:28:27;28.00;80.30
58096;DHT22;43908;53.038;6.666;2022-08-02T13:30:53;28.00;82.00
58096;DHT22;43908;53.038;6.666;2022-08-02T13:33:19;28.00;84.30
58096;DHT22;43908;53.038;6.666;2022-08-02T13:35:45;27.90;81.30
58096;DHT22;43908;53.038;6.666;2022-08-02T13:38:11;27.90;81.20
58096;DHT22;43908;53.038;6.666;2022-08-02T13:40:37;27.80;83.50
58096;DHT22;43908;53.038;6.666;2022-08-02T13:43:22;27.80;82.10
58096;DHT22;43908;53.038;6.666;2022-08-02T13:45:48;27.80;82.80
58096;DHT22;43908;53.038;6.666;2022-08-02T13:48:14;27.50;83.30
58096;DHT22;43908;53.038;6.666;2022-08-02T13:50:39;27.50;83.30
58096;DHT22;43908;53.038;6.666;2022-08-02T13:53:05;27.40;84.60
58096;DHT22;43908;53.038;6.666;2022-08-02T13:55:31;27.30;84.90
58096;DHT22;43908;53.038;6.666;2022-08-02T13:57:57;27.30;84.60
58096;DHT22;43908;53.038;6.666;2022-08-02T14:00:23;27.20;84.30
58096;DHT22;43908;53.038;6.666;2022-08-02T14:02:48;27.10;85.30
58096;DHT22;43908;53.038;6.666;2022-08-02T14:05:14;27.10;82.90
58096;DHT22;43908;53.038;6.666;2022-08-02T14:07:40;27.10;83.80
58096;DHT22;43908;53.038;6.666;2022-08-02T14:10:06;27.00;84.90
58096;DHT22;43908;53.038;6.666;2022-08-02T14:12:31;26.90;85.00
58096;DHT22;43908;53.038;6.666;2022-08-02T14:14:57;27.00;84.80
58096;DHT22;43908;53.038;6.666;2022-08-02T14:17:23;26.90;85.00
58096;DHT22;43908;53.038;6.666;2022-08-02T14:19:48;26.80;85.20
58096;DHT22;43908;53.038;6.666;2022-08-02T14:22:15;26.70;85.00
58096;DHT22;43908;53.038;6.666;2022-08-02T14:24:41;26.70;85.30
58096;DHT22;43908;53.038;6.666;2022-08-02T14:27:07;26.60;85.00
58096;DHT22;43908;53.038;6.666;2022-08-02T14:29:32;26.60;88.40
58096;DHT22;43908;53.038;6.666;2022-08-02T14:31:58;26.60;87.70
58096;DHT22;43908;53.038;6.666;2022-08-02T14:34:24;26.50;87.40
58096;DHT22;43908;53.038;6.666;2022-08-02T14:36:49;26.50;88.10
58096;DHT22;43908;53.038;6.666;2022-08-02T14:39:15;26.50;87.60
58096;DHT22;43908;53.038;6.666;2022-08-02T14:41:40;26.60;87.90
58096;DHT22;43908;53.038;6.666;2022-08-02T14:44:06;26.70;89.40
58096;DHT22;43908;53.038;6.666;2022-08-02T14:46:35;26.60;88.90
58096;DHT22;43908;53.038;6.666;2022-08-02T14:49:01;26.70;88.00
58096;DHT22;43908;53.038;6.666;2022-08-02T14:51:29;26.60;88.10
58096;DHT22;43908;53.038;6.666;2022-08-02T14:53:56;26.50;89.10
58096;DHT22;43908;53.038;6.666;2022-08-02T14:56:21;26.50;88.20
58096;DHT22;43908;53.038;6.666;2022-08-02T14:58:47;26.40;88.40
58096;DHT22;43908;53.038;6.666;2022-08-02T15:01:12;26.30;89.20
58096;DHT22;43908;53.038;6.666;2022-08-02T15:03:38;26.30;90.20
58096;DHT22;43908;53.038;6.666;2022-08-02T15:06:03;26.30;88.40
58096;DHT22;43908;53.038;6.666;2022-08-02T15:08:29;26.30;89.50
58096;DHT22;43908;53.038;6.666;2022-08-02T15:10:54;26.30;90.20
58096;DHT22;43908;53.038;6.666;2022-08-02T15:13:20;26.30;90.20
58096;DHT22;43908;53.038;6.666;2022-08-02T15:15:46;26.30;89.60
58096;DHT22;43908;53.038;6.666;2022-08-02T15:18:12;26.50;88.40
58096;DHT22;43908;53.038;6.666;2022-08-02T15:20:38;26.50;88.90
58096;DHT22;43908;53.038;6.666;2022-08-02T15:23:05;26.60;89.10
58096;DHT22;43908;53.038;6.666;2022-08-02T15:25:31;26.60;89.40
58096;DHT22;43908;53.038;6.666;2022-08-02T15:27:56;26.70;88.70
58096;DHT22;43908;53.038;6.666;2022-08-02T15:30:22;26.70;88.50
58096;DHT22;43908;53.038;6.666;2022-08-02T15:32:47;26.80;87.80
58096;DHT22;43908;53.038;6.666;2022-08-02T15:35:14;26.90;90.00
58096;DHT22;43908;53.038;6.666;2022-08-02T15:37:40;27.10;89.10
58096;DHT22;43908;53.038;6.666;2022-08-02T15:40:06;27.30;89.10
58096;DHT22;43908;53.038;6.666;2022-08-02T15:42:31;27.40;87.20
58096;DHT22;43908;53.038;6.666;2022-08-02T15:44:57;27.40;86.70
58096;DHT22;43908;53.038;6.666;2022-08-02T15:47:23;27.40;85.60
58096;DHT22;43908;53.038;6.666;2022-08-02T15:49:49;27.40;85.10
58096;DHT22;43908;53.038;6.666;2022-08-02T15:52:14;27.30;86.20
58096;DHT22;43908;53.038;6.666;2022-08-02T15:54:40;27.20;86.20
58096;DHT22;43908;53.038;6.666;2022-08-02T15:57:06;27.30;85.70
58096;DHT22;43908;53.038;6.666;2022-08-02T15:59:31;27.30;86.60
58096;DHT22;43908;53.038;6.666;2022-08-02T16:01:57;27.30;86.20
58096;DHT22;43908;53.038;6.666;2022-08-02T16:04:22;27.30;86.30
58096;DHT22;43908;53.038;6.666;2022-08-02T16:06:48;27.40;85.20
58096;DHT22;43908;53.038;6.666;2022-08-02T16:09:13;27.50;85.50
58096;DHT22;43908;53.038;6.666;2022-08-02T16:11:39;27.40;84.60
58096;DHT22;43908;53.038;6.666;2022-08-02T16:14:05;27.40;85.30
58096;DHT22;43908;53.038;6.666;2022-08-02T16:16:32;27.50;84.60